createdAt,value
2023-04-21T00:00:35.407Z,933
2023-04-21T00:01:36.303Z,933
2023-04-21T00:02:36.892Z,932.95
2023-04-21T00:03:37.470Z,932.94
2023-04-21T00:04:37.611Z,932.93
2023-04-21T00:05:37.942Z,932.9
2023-04-21T00:06:38.069Z,932.84
2023-04-21T00:07:38.376Z,932.83
2023-04-21T00:08:39.297Z,932.77
2023-04-21T00:09:40.237Z,932.69
2023-04-21T00:10:41.286Z,932.68
2023-04-21T00:11:42.371Z,932.71
2023-04-21T00:12:43.153Z,932.69
2023-04-21T00:13:43.673Z,932.69
2023-04-21T00:14:44.471Z,932.68
2023-04-21T00:15:45.072Z,932.73
2023-04-21T00:16:45.707Z,932.7
2023-04-21T00:17:46.274Z,932.77
2023-04-21T00:18:46.435Z,932.76
2023-04-21T00:19:46.970Z,932.75
2023-04-21T00:20:47.646Z,932.73
2023-04-21T00:21:48.340Z,932.69
2023-04-21T00:22:49.226Z,932.69
2023-04-21T00:23:49.973Z,932.61
2023-04-21T00:24:50.885Z,932.66
2023-04-21T00:25:51.571Z,932.64
2023-04-21T00:26:52.069Z,932.6
2023-04-21T00:27:52.861Z,932.62
2023-04-21T00:28:53.770Z,932.63
2023-04-21T00:29:54.491Z,932.65
2023-04-21T00:30:55.102Z,932.65
2023-04-21T00:31:56.149Z,932.65
2023-04-21T00:32:56.723Z,932.65
2023-04-21T00:33:57.394Z,932.65
2023-04-21T00:34:57.907Z,932.6
2023-04-21T00:35:58.320Z,932.63
2023-04-21T00:36:58.809Z,932.57
2023-04-21T00:37:59.707Z,932.56
2023-04-21T00:39:00.203Z,932.54
2023-04-21T00:40:00.992Z,932.54
2023-04-21T00:41:01.671Z,932.56
2023-04-21T00:42:02.190Z,932.53
2023-04-21T00:43:03.194Z,932.54
2023-04-21T00:44:04.071Z,932.56
2023-04-21T00:45:04.780Z,932.52
2023-04-21T00:46:05.510Z,932.52
2023-04-21T00:47:05.914Z,932.51
2023-04-21T00:48:06.766Z,932.48
2023-04-21T00:49:07.308Z,932.48
2023-04-21T00:50:07.996Z,932.54
2023-04-21T00:51:08.210Z,932.52
2023-04-21T00:52:08.994Z,932.52
2023-04-21T00:53:09.505Z,932.48
2023-04-21T00:54:09.784Z,932.44
2023-04-21T00:55:10.290Z,932.43
2023-04-21T00:56:10.802Z,932.44
2023-04-21T00:57:11.285Z,932.39
2023-04-21T00:58:11.822Z,932.42
2023-04-21T00:59:12.540Z,932.42
2023-04-21T01:00:12.976Z,932.4
2023-04-21T01:01:13.720Z,932.38
2023-04-21T01:02:13.949Z,932.38
2023-04-21T01:03:14.356Z,932.37
2023-04-21T01:04:15.178Z,932.34
2023-04-21T01:05:15.851Z,932.36
2023-04-21T01:06:16.759Z,932.34
2023-04-21T01:07:17.477Z,932.33
2023-04-21T01:08:18.421Z,932.37
2023-04-21T01:09:19.505Z,932.35
2023-04-21T01:10:19.811Z,932.36
2023-04-21T01:11:20.826Z,932.32
2023-04-21T01:12:21.340Z,932.28
2023-04-21T01:13:21.897Z,932.34
2023-04-21T01:14:22.801Z,932.35
2023-04-21T01:15:23.331Z,932.34
2023-04-21T01:16:23.455Z,932.34
2023-04-21T01:17:24.267Z,932.28
2023-04-21T01:18:25.191Z,932.23
2023-04-21T01:19:25.507Z,932.22
2023-04-21T01:20:26.259Z,932.19
2023-04-21T01:21:26.875Z,932.16
2023-04-21T01:22:27.361Z,932.19
2023-04-21T01:23:28.075Z,932.14
2023-04-21T01:24:28.788Z,932.14
2023-04-21T01:25:28.897Z,932.17
2023-04-21T01:26:29.003Z,932.15
2023-04-21T01:27:29.695Z,932.12
2023-04-21T01:28:30.456Z,932.13
2023-04-21T01:29:30.949Z,932.14
2023-04-21T01:30:31.696Z,932.07
2023-04-21T01:31:32.249Z,932.06
2023-04-21T01:32:33.220Z,932.06
2023-04-21T01:33:34.148Z,932.01
2023-04-21T01:34:34.656Z,932.05
2023-04-21T01:35:35.361Z,931.97
2023-04-21T01:36:36.118Z,932
2023-04-21T01:37:36.796Z,931.97
2023-04-21T01:38:37.279Z,932.01
2023-04-21T01:39:37.990Z,932.02
2023-04-21T01:40:38.558Z,932.03
2023-04-21T01:41:39.200Z,932.05
2023-04-21T01:42:39.900Z,931.99
2023-04-21T01:43:40.638Z,932.03
2023-04-21T01:44:41.118Z,932.02
2023-04-21T01:45:41.294Z,931.99
2023-04-21T01:46:41.979Z,931.96
2023-04-21T01:47:42.520Z,931.93
2023-04-21T01:48:43.128Z,931.92
2023-04-21T01:49:44.233Z,931.93
2023-04-21T01:50:44.966Z,931.94
2023-04-21T01:51:45.258Z,931.88
2023-04-21T01:52:45.952Z,931.92
2023-04-21T01:53:46.453Z,931.92
2023-04-21T01:54:46.944Z,931.91
2023-04-21T01:55:47.445Z,931.89
2023-04-21T01:56:48.151Z,931.9
2023-04-21T01:57:48.457Z,931.81
2023-04-21T01:58:48.795Z,931.81
2023-04-21T01:59:49.480Z,931.82
2023-04-21T02:00:49.974Z,931.83
2023-04-21T02:01:50.478Z,931.87
2023-04-21T02:02:50.765Z,931.9
2023-04-21T02:03:51.431Z,931.92
2023-04-21T02:04:51.337Z,931.96
2023-04-21T02:05:52.049Z,931.97
2023-04-21T02:06:52.584Z,931.97
2023-04-21T02:07:53.087Z,931.98
2023-04-21T02:08:53.570Z,931.98
2023-04-21T02:09:53.844Z,931.96
2023-04-21T02:10:54.150Z,931.99
2023-04-21T02:11:55.162Z,931.99
2023-04-21T02:12:55.306Z,931.97
2023-04-21T02:13:55.861Z,931.96
2023-04-21T02:14:56.567Z,931.97
2023-04-21T02:16:09.982Z,931.95
2023-04-21T02:16:58.273Z,931.95
2023-04-21T02:17:58.820Z,932.02
2023-04-21T02:18:59.709Z,932.01
2023-04-21T02:20:01.448Z,932.01
2023-04-21T02:21:01.041Z,932.05
2023-04-21T02:22:01.475Z,932.08
2023-04-21T02:23:02.167Z,932.11
2023-04-21T02:24:02.864Z,932.11
2023-04-21T02:25:03.347Z,932.17
2023-04-21T02:26:04.080Z,932.15
2023-04-21T02:27:04.769Z,932.18
2023-04-21T02:28:05.470Z,932.15
2023-04-21T02:29:05.612Z,932.23
2023-04-21T02:30:06.516Z,932.18
2023-04-21T02:31:06.869Z,932.19
2023-04-21T02:33:06.510Z,932.26
2023-04-21T02:34:07.053Z,932.3
2023-04-21T02:35:07.739Z,932.32
2023-04-21T02:36:08.290Z,932.34
2023-04-21T02:37:08.806Z,932.32
2023-04-21T02:38:09.819Z,932.34
2023-04-21T02:39:10.372Z,932.3
2023-04-21T02:40:11.111Z,932.31
2023-04-21T02:41:11.834Z,932.3
2023-04-21T02:42:12.661Z,932.33
2023-04-21T02:43:12.842Z,932.33
2023-04-21T02:44:13.378Z,932.36
2023-04-21T02:45:14.055Z,932.32
2023-04-21T02:46:14.980Z,932.32
2023-04-21T02:47:15.673Z,932.33
2023-04-21T02:48:16.750Z,932.33
2023-04-21T02:49:17.204Z,932.34
2023-04-21T02:50:17.950Z,932.35
2023-04-21T02:51:18.946Z,932.29
2023-04-21T02:52:19.458Z,932.35
2023-04-21T02:53:19.754Z,932.37
2023-04-21T02:54:20.681Z,932.32
2023-04-21T02:55:21.404Z,932.31
2023-04-21T02:56:21.889Z,932.33
2023-04-21T02:57:22.423Z,932.32
2023-04-21T02:58:22.899Z,932.29
2023-04-21T02:59:23.630Z,932.19
2023-04-21T03:00:24.537Z,932.26
2023-04-21T03:01:25.503Z,932.19
2023-04-21T03:02:25.900Z,932.16
2023-04-21T03:03:26.454Z,932.12
2023-04-21T03:04:27.539Z,932.04
2023-04-21T03:05:27.757Z,932
2023-04-21T03:06:28.270Z,931.94
2023-04-21T03:07:28.997Z,931.91
2023-04-21T03:08:29.496Z,931.86
2023-04-21T03:09:30.431Z,931.82
2023-04-21T03:10:30.744Z,931.81
2023-04-21T03:11:31.646Z,931.79
2023-04-21T03:12:32.288Z,931.79
2023-04-21T03:13:32.570Z,931.79
2023-04-21T03:14:33.301Z,931.78
2023-04-21T03:15:33.826Z,931.75
2023-04-21T03:16:34.794Z,931.71
2023-04-21T03:17:35.319Z,931.72
2023-04-21T03:18:35.675Z,931.74
2023-04-21T03:19:36.656Z,931.73
2023-04-21T03:20:37.347Z,931.75
2023-04-21T03:21:38.246Z,931.79
2023-04-21T03:22:38.490Z,931.86
2023-04-21T03:23:38.771Z,931.88
2023-04-21T03:24:39.468Z,931.94
2023-04-21T03:25:39.744Z,931.94
2023-04-21T03:26:40.819Z,931.95
2023-04-21T03:27:41.503Z,931.96
2023-04-21T03:28:42.059Z,931.95
2023-04-21T03:29:42.793Z,931.95
2023-04-21T03:30:43.688Z,931.98
2023-04-21T03:31:44.284Z,931.97
2023-04-21T03:32:44.828Z,931.95
2023-04-21T03:33:45.846Z,931.97
2023-04-21T03:34:46.593Z,931.94
2023-04-21T03:35:46.723Z,931.97
2023-04-21T03:36:47.242Z,931.96
2023-04-21T03:37:48.007Z,931.97
2023-04-21T03:38:48.992Z,931.87
2023-04-21T03:39:49.704Z,931.9
2023-04-21T03:40:50.165Z,931.93
2023-04-21T03:41:50.849Z,931.91
2023-04-21T03:42:51.043Z,931.94
2023-04-21T03:43:51.729Z,931.91
2023-04-21T03:44:52.450Z,931.92
2023-04-21T03:45:53.408Z,931.93
2023-04-21T03:46:54.424Z,931.86
2023-04-21T03:47:55.023Z,931.81
2023-04-21T03:48:55.167Z,931.84
2023-04-21T03:49:55.284Z,931.87
2023-04-21T03:50:56.006Z,931.89
2023-04-21T03:51:56.498Z,931.87
2023-04-21T03:52:57.108Z,931.83
2023-04-21T03:53:57.619Z,931.86
2023-04-21T03:54:58.204Z,931.88
2023-04-21T03:55:58.772Z,931.88
2023-04-21T03:56:59.470Z,931.88
2023-04-21T03:58:00.185Z,931.88
2023-04-21T03:59:00.691Z,931.9
2023-04-21T04:00:01.808Z,931.91
2023-04-21T04:01:02.758Z,931.93
2023-04-21T04:02:03.732Z,931.9
2023-04-21T04:03:04.091Z,931.94
2023-04-21T04:04:05.212Z,931.96
2023-04-21T04:05:05.660Z,931.94
2023-04-21T04:06:05.942Z,931.9
2023-04-21T04:07:06.436Z,931.92
2023-04-21T04:08:07.201Z,931.93
2023-04-21T04:09:07.746Z,931.95
2023-04-21T04:10:08.374Z,931.93
2023-04-21T04:11:09.090Z,931.92
2023-04-21T04:12:11.133Z,931.94
2023-04-21T04:13:10.629Z,931.95
2023-04-21T04:14:11.273Z,931.93
2023-04-21T04:15:11.838Z,931.91
2023-04-21T04:16:12.474Z,931.87
2023-04-21T04:17:12.580Z,931.9
2023-04-21T04:18:13.564Z,931.92
2023-04-21T04:19:14.459Z,931.96
2023-04-21T04:20:14.737Z,931.92
2023-04-21T04:21:15.256Z,931.97
2023-04-21T04:22:15.731Z,931.95
2023-04-21T04:23:16.539Z,931.95
2023-04-21T04:24:17.257Z,931.96
2023-04-21T04:25:17.971Z,931.97
2023-04-21T04:26:18.462Z,931.91
2023-04-21T04:27:18.796Z,931.98
2023-04-21T04:28:19.891Z,931.94
2023-04-21T04:29:20.798Z,931.94
2023-04-21T04:30:21.639Z,931.97
2023-04-21T04:31:22.332Z,932.01
2023-04-21T04:32:23.126Z,931.99
2023-04-21T04:33:23.376Z,931.96
2023-04-21T04:34:23.470Z,932
2023-04-21T04:35:24.408Z,932.01
2023-04-21T04:36:25.240Z,931.99
2023-04-21T04:37:26.126Z,931.98
2023-04-21T04:38:26.693Z,931.98
2023-04-21T04:39:27.238Z,931.94
2023-04-21T04:40:27.521Z,931.87
2023-04-21T04:41:28.419Z,931.88
2023-04-21T04:42:29.309Z,931.89
2023-04-21T04:43:30.336Z,931.95
2023-04-21T04:44:31.063Z,931.97
2023-04-21T04:45:31.370Z,931.97
2023-04-21T04:46:32.114Z,931.96
2023-04-21T04:47:32.271Z,931.99
2023-04-21T04:48:33.288Z,931.96
2023-04-21T04:49:33.769Z,931.96
2023-04-21T04:50:34.501Z,932.03
2023-04-21T04:51:35.382Z,932.02
2023-04-21T04:52:36.143Z,932.01
2023-04-21T04:53:36.651Z,932.04
2023-04-21T04:54:37.565Z,932.07
2023-04-21T04:55:38.079Z,932.13
2023-04-21T04:56:38.995Z,932.11
2023-04-21T04:57:39.712Z,932.12
2023-04-21T04:58:40.405Z,932.17
2023-04-21T04:59:41.085Z,932.11
2023-04-21T05:00:41.632Z,932.14
2023-04-21T05:01:42.357Z,932.17
2023-04-21T05:02:43.162Z,932.14
2023-04-21T05:03:44.118Z,932.13
2023-04-21T05:04:44.704Z,932.14
2023-04-21T05:05:45.184Z,932.12
2023-04-21T05:06:45.263Z,932.1
2023-04-21T05:07:45.989Z,932.08
2023-04-21T05:08:46.939Z,932.11
2023-04-21T05:09:47.224Z,932.11
2023-04-21T05:10:48.141Z,932.11
2023-04-21T05:11:49.062Z,932.12
2023-04-21T05:12:49.357Z,932.12
2023-04-21T05:13:50.324Z,932.07
2023-04-21T05:14:51.217Z,932.08
2023-04-21T05:15:52.161Z,932.08
2023-04-21T05:16:52.804Z,932.14
2023-04-21T05:17:53.066Z,932.17
2023-04-21T05:18:53.862Z,932.17
2023-04-21T05:19:53.984Z,932.17
2023-04-21T05:20:54.919Z,932.18
2023-04-21T05:21:55.836Z,932.2
2023-04-21T05:22:56.386Z,932.2
2023-04-21T05:23:56.791Z,932.27
2023-04-21T05:24:57.686Z,932.3
2023-04-21T05:25:57.962Z,932.32
2023-04-21T05:26:58.222Z,932.3
2023-04-21T05:27:58.516Z,932.25
2023-04-21T05:28:59.426Z,932.2
2023-04-21T05:29:59.985Z,932.18
2023-04-21T05:31:00.498Z,932.2
2023-04-21T05:32:01.497Z,932.2
2023-04-21T05:33:01.759Z,932.19
2023-04-21T05:34:01.839Z,932.22
2023-04-21T05:35:02.740Z,932.18
2023-04-21T05:36:03.252Z,932.19
2023-04-21T05:37:03.761Z,932.19
2023-04-21T05:38:04.666Z,932.22
2023-04-21T05:39:05.014Z,932.22
2023-04-21T05:40:05.721Z,932.25
2023-04-21T05:41:06.652Z,932.3
2023-04-21T05:42:06.769Z,932.28
2023-04-21T05:43:07.309Z,932.25
2023-04-21T05:44:07.546Z,932.25
2023-04-21T05:45:07.700Z,932.28
2023-04-21T05:46:08.558Z,932.25
2023-04-21T05:47:08.613Z,932.29
2023-04-21T05:48:10.786Z,932.32
2023-04-21T05:49:09.579Z,932.32
2023-04-21T05:50:09.886Z,932.35
2023-04-21T05:51:10.440Z,932.32
2023-04-21T05:52:11.131Z,932.36
2023-04-21T05:53:11.678Z,932.35
2023-04-21T05:54:12.288Z,932.39
2023-04-21T05:55:12.676Z,932.43
2023-04-21T05:56:13.181Z,932.46
2023-04-21T05:57:13.713Z,932.46
2023-04-21T05:58:14.416Z,932.48
2023-04-21T05:59:14.709Z,932.46
2023-04-21T06:00:15.192Z,932.51
2023-04-21T06:01:15.755Z,932.49
2023-04-21T06:02:16.496Z,932.46
2023-04-21T06:03:17.206Z,932.45
2023-04-21T06:04:18.090Z,932.45
2023-04-21T06:05:18.351Z,932.42
2023-04-21T06:06:19.167Z,932.42
2023-04-21T06:07:19.313Z,932.37
2023-04-21T06:08:20.232Z,932.4
2023-04-21T06:09:20.975Z,932.39
2023-04-21T06:10:21.447Z,932.38
2023-04-21T06:11:22.157Z,932.35
2023-04-21T06:12:22.846Z,932.34
2023-04-21T06:13:23.354Z,932.32
2023-04-21T06:14:23.715Z,932.27
2023-04-21T06:15:24.256Z,932.33
2023-04-21T06:16:24.468Z,932.32
2023-04-21T06:17:25.146Z,932.32
2023-04-21T06:18:26.140Z,932.38
2023-04-21T06:19:26.261Z,932.44
2023-04-21T06:20:26.807Z,932.43
2023-04-21T06:21:27.545Z,932.46
2023-04-21T06:22:28.104Z,932.42
2023-04-21T06:23:28.896Z,932.4
2023-04-21T06:24:29.379Z,932.41
2023-04-21T06:25:29.861Z,932.38
2023-04-21T06:26:30.761Z,932.38
2023-04-21T06:27:31.245Z,932.39
2023-04-21T06:28:31.930Z,932.37
2023-04-21T06:29:32.429Z,932.41
2023-04-21T06:30:33.162Z,932.4
2023-04-21T06:31:33.945Z,932.42
2023-04-21T06:32:34.930Z,932.4
2023-04-21T06:33:35.168Z,932.43
2023-04-21T06:34:36.067Z,932.44
2023-04-21T06:35:36.784Z,932.44
2023-04-21T06:36:37.311Z,932.46
2023-04-21T06:37:37.833Z,932.43
2023-04-21T06:38:38.512Z,932.43
2023-04-21T06:39:38.690Z,932.41
2023-04-21T06:40:39.389Z,932.38
2023-04-21T06:41:40.192Z,932.4
2023-04-21T06:42:40.907Z,932.39
2023-04-21T06:43:41.536Z,932.42
2023-04-21T06:44:42.325Z,932.41
2023-04-21T06:45:42.439Z,932.42
2023-04-21T06:46:43.430Z,932.41
2023-04-21T06:47:44.327Z,932.4
2023-04-21T06:48:44.442Z,932.42
2023-04-21T06:49:44.790Z,932.42
2023-04-21T06:50:45.279Z,932.35
2023-04-21T06:51:46.233Z,932.4
2023-04-21T06:52:46.739Z,932.36
2023-04-21T06:53:47.442Z,932.33
2023-04-21T06:54:48.087Z,932.33
2023-04-21T06:55:49.015Z,932.3
2023-04-21T06:56:49.727Z,932.3
2023-04-21T06:57:50.474Z,932.3
2023-04-21T06:58:51.221Z,932.27
2023-04-21T06:59:51.933Z,932.28
2023-04-21T07:00:52.884Z,932.34
2023-04-21T07:01:53.480Z,932.31
2023-04-21T07:02:54.347Z,932.29
2023-04-21T07:03:54.730Z,932.28
2023-04-21T07:04:55.189Z,932.24
2023-04-21T07:05:55.908Z,932.3
2023-04-21T07:06:56.721Z,932.34
2023-04-21T07:07:57.006Z,932.39
2023-04-21T07:08:57.140Z,932.38
2023-04-21T07:09:57.943Z,932.31
2023-04-21T07:10:58.713Z,932.31
2023-04-21T07:11:59.510Z,932.34
2023-04-21T07:13:00.522Z,932.35
2023-04-21T07:14:00.901Z,932.43
2023-04-21T07:15:01.157Z,932.42
2023-04-21T07:16:01.498Z,932.44
2023-04-21T07:17:01.946Z,932.53
2023-04-21T07:18:02.171Z,932.54
2023-04-21T07:19:02.264Z,932.5
2023-04-21T07:20:02.601Z,932.5
2023-04-21T07:21:02.781Z,932.5
2023-04-21T07:22:03.724Z,932.55
2023-04-21T07:23:04.627Z,932.53
2023-04-21T07:24:05.207Z,932.59
2023-04-21T07:25:05.930Z,932.55
2023-04-21T07:26:07.023Z,932.56
2023-04-21T07:27:07.334Z,932.56
2023-04-21T07:28:08.254Z,932.57
2023-04-21T07:29:09.174Z,932.61
2023-04-21T07:30:10.080Z,932.65
2023-04-21T07:31:11.111Z,932.66
2023-04-21T07:32:11.247Z,932.67
2023-04-21T07:33:11.914Z,932.71
2023-04-21T07:34:12.137Z,932.64
2023-04-21T07:35:12.369Z,932.64
2023-04-21T07:36:12.618Z,932.65
2023-04-21T07:37:13.691Z,932.65
2023-04-21T07:38:13.978Z,932.61
2023-04-21T07:39:14.419Z,932.63
2023-04-21T07:40:14.612Z,932.62
2023-04-21T07:41:15.213Z,932.62
2023-04-21T07:42:15.523Z,932.59
2023-04-21T07:43:16.023Z,932.57
2023-04-21T07:44:16.728Z,932.56
2023-04-21T07:45:17.579Z,932.57
2023-04-21T07:46:18.339Z,932.61
2023-04-21T07:47:18.683Z,932.61
2023-04-21T07:48:19.434Z,932.62
2023-04-21T07:49:20.512Z,932.59
2023-04-21T07:50:21.246Z,932.62
2023-04-21T07:51:21.994Z,932.61
2023-04-21T07:52:22.573Z,932.66
2023-04-21T07:53:23.299Z,932.59
2023-04-21T07:54:24.393Z,932.58
2023-04-21T07:55:25.165Z,932.56
2023-04-21T07:56:26.023Z,932.6
2023-04-21T07:57:26.922Z,932.58
2023-04-21T07:58:27.421Z,932.62
2023-04-21T07:59:28.338Z,932.64
2023-04-21T08:00:29.049Z,932.69
2023-04-21T08:01:29.950Z,932.67
2023-04-21T08:02:30.972Z,932.7
2023-04-21T08:03:31.501Z,932.63
2023-04-21T08:04:32.547Z,932.64
2023-04-21T08:05:34.999Z,932.65
2023-04-21T08:06:33.877Z,932.62
2023-04-21T08:07:34.366Z,932.64
2023-04-21T08:08:35.378Z,932.61
2023-04-21T08:09:35.727Z,932.61
2023-04-21T08:10:36.277Z,932.63
2023-04-21T08:11:36.984Z,932.63
2023-04-21T08:12:37.936Z,932.64
2023-04-21T08:13:38.717Z,932.64
2023-04-21T08:14:39.461Z,932.67
2023-04-21T08:15:40.071Z,932.61
2023-04-21T08:16:40.458Z,932.63
2023-04-21T08:17:40.696Z,932.63
2023-04-21T08:18:40.770Z,932.57
2023-04-21T08:19:41.556Z,932.58
2023-04-21T08:20:42.202Z,932.59
2023-04-21T08:21:42.774Z,932.64
2023-04-21T08:22:44.899Z,932.65
2023-04-21T08:23:43.840Z,932.63
2023-04-21T08:24:44.560Z,932.63
2023-04-21T08:25:45.332Z,932.59
2023-04-21T08:26:46.392Z,932.62
2023-04-21T08:27:47.224Z,932.58
2023-04-21T08:28:48.168Z,932.53
2023-04-21T08:29:48.340Z,932.49
2023-04-21T08:30:49.223Z,932.53
2023-04-21T08:31:50.095Z,932.51
2023-04-21T08:32:50.465Z,932.49
2023-04-21T08:34:00.869Z,932.54
2023-04-21T08:34:50.821Z,932.53
2023-04-21T08:36:56.486Z,932.53
2023-04-21T08:37:57.137Z,932.49
2023-04-21T08:38:57.304Z,932.49
2023-04-21T08:39:58.371Z,932.55
2023-04-21T08:40:58.981Z,932.57
2023-04-21T08:41:59.540Z,932.58
2023-04-21T08:43:00.059Z,932.57
2023-04-21T08:44:00.608Z,932.56
2023-04-21T08:45:01.008Z,932.53
2023-04-21T08:46:01.749Z,932.55
2023-04-21T08:47:01.919Z,932.5
2023-04-21T08:48:02.935Z,932.49
2023-04-21T08:49:03.185Z,932.49
2023-04-21T08:50:03.327Z,932.47
2023-04-21T08:51:04.087Z,932.54
2023-04-21T08:52:04.288Z,932.54
2023-04-21T08:53:05.250Z,932.59
2023-04-21T08:54:05.959Z,932.6
2023-04-21T08:55:06.896Z,932.59
2023-04-21T08:56:12.499Z,932.53
2023-04-21T08:57:15.590Z,932.5
2023-04-21T08:58:13.685Z,932.49
2023-04-21T08:59:14.545Z,932.51
2023-04-21T09:00:15.323Z,932.54
2023-04-21T09:01:15.676Z,932.55
2023-04-21T09:02:16.074Z,932.55
2023-04-21T09:03:25.325Z,932.58
2023-04-21T09:04:29.569Z,932.58
2023-04-21T09:05:17.253Z,932.56
2023-04-21T09:06:18.097Z,932.6
2023-04-21T09:07:18.552Z,932.63
2023-04-21T09:08:19.589Z,932.62
2023-04-21T09:09:20.626Z,932.61
2023-04-21T09:10:21.471Z,932.61
2023-04-21T09:11:21.653Z,932.6
2023-04-21T09:12:22.372Z,932.61
2023-04-21T09:13:22.878Z,932.6
2023-04-21T09:14:23.061Z,932.58
2023-04-21T09:15:23.662Z,932.55
2023-04-21T09:16:24.213Z,932.56
2023-04-21T09:17:24.531Z,932.55
2023-04-21T09:18:24.706Z,932.57
2023-04-21T09:19:24.933Z,932.56
2023-04-21T09:20:25.985Z,932.58
2023-04-21T09:21:26.970Z,932.57
2023-04-21T09:22:27.110Z,932.59
2023-04-21T09:23:27.337Z,932.64
2023-04-21T09:24:28.308Z,932.66
2023-04-21T09:25:29.085Z,932.69
2023-04-21T09:26:29.694Z,932.68
2023-04-21T09:27:30.316Z,932.68
2023-04-21T09:28:31.257Z,932.65
2023-04-21T09:29:32.234Z,932.66
2023-04-21T09:30:32.984Z,932.6
2023-04-21T09:31:33.289Z,932.57
2023-04-21T09:32:33.731Z,932.5
2023-04-21T09:33:42.449Z,932.52
2023-04-21T09:34:35.387Z,932.57
2023-04-21T09:35:36.039Z,932.62
2023-04-21T09:36:36.533Z,932.63
2023-04-21T09:37:37.220Z,932.58
2023-04-21T09:38:38.177Z,932.59
2023-04-21T09:39:49.502Z,932.62
2023-04-21T09:40:40.133Z,932.61
2023-04-21T09:41:40.786Z,932.61
2023-04-21T09:42:42.009Z,932.63
2023-04-21T09:43:42.097Z,932.55
2023-04-21T09:44:52.339Z,932.6
2023-04-21T09:45:50.108Z,932.59
2023-04-21T09:46:51.270Z,932.6
2023-04-21T09:47:52.293Z,932.63
2023-04-21T09:48:52.812Z,932.61
2023-04-21T09:49:53.027Z,932.63
2023-04-21T09:51:22.556Z,932.64
2023-04-21T09:52:19.674Z,932.61
2023-04-21T09:53:19.418Z,932.64
2023-04-21T09:54:28.831Z,932.68
2023-04-21T09:55:19.899Z,932.66
2023-04-21T09:56:20.639Z,932.61
2023-04-21T09:57:20.946Z,932.63
2023-04-21T09:58:21.920Z,932.58
2023-04-21T09:59:23.487Z,932.63
2023-04-21T10:00:23.012Z,932.6
2023-04-21T10:01:23.556Z,932.57
2023-04-21T10:02:24.697Z,932.55
2023-04-21T10:03:25.504Z,932.54
2023-04-21T10:04:26.533Z,932.53
2023-04-21T10:05:26.759Z,932.54
2023-04-21T10:06:27.504Z,932.55
2023-04-21T10:07:27.995Z,932.55
2023-04-21T10:08:29.003Z,932.54
2023-04-21T10:09:30.028Z,932.54
2023-04-21T10:10:30.761Z,932.52
2023-04-21T10:11:31.707Z,932.52
2023-04-21T10:12:31.917Z,932.55
2023-04-21T10:13:32.844Z,932.49
2023-04-21T10:14:33.754Z,932.52
2023-04-21T10:15:34.060Z,932.49
2023-04-21T10:16:35.136Z,932.52
2023-04-21T10:17:36.086Z,932.46
2023-04-21T10:18:37.004Z,932.44
2023-04-21T10:19:37.807Z,932.38
2023-04-21T10:20:37.965Z,932.35
2023-04-21T10:21:38.110Z,932.36
2023-04-21T10:22:38.443Z,932.37
2023-04-21T10:23:39.426Z,932.37
2023-04-21T10:24:39.604Z,932.39
2023-04-21T10:25:40.545Z,932.39
2023-04-21T10:26:41.120Z,932.34
2023-04-21T10:27:41.886Z,932.35
2023-04-21T10:28:42.221Z,932.34
2023-04-21T10:29:55.863Z,932.34
2023-04-21T10:30:43.285Z,932.35
2023-04-21T10:31:43.529Z,932.29
2023-04-21T10:32:43.661Z,932.24
2023-04-21T10:33:43.966Z,932.3
2023-04-21T10:34:44.352Z,932.28
2023-04-21T10:35:45.283Z,932.26
2023-04-21T10:36:45.991Z,932.23
2023-04-21T10:37:46.866Z,932.2
2023-04-21T10:38:47.833Z,932.22
2023-04-21T10:39:48.796Z,932.22
2023-04-21T10:40:49.303Z,932.22
2023-04-21T10:41:50.055Z,932.21
2023-04-21T10:42:50.259Z,932.21
2023-04-21T10:43:50.788Z,932.22
2023-04-21T10:44:51.457Z,932.23
2023-04-21T10:45:52.526Z,932.24
2023-04-21T10:46:53.079Z,932.21
2023-04-21T10:47:53.217Z,932.22
2023-04-21T10:48:54.128Z,932.26
2023-04-21T10:49:55.042Z,932.23
2023-04-21T10:50:55.254Z,932.22
2023-04-21T10:51:56.260Z,932.21
2023-04-21T10:52:56.371Z,932.24
2023-04-21T10:53:57.354Z,932.3
2023-04-21T10:54:58.123Z,932.26
2023-04-21T10:55:58.279Z,932.22
2023-04-21T10:56:58.802Z,932.22
2023-04-21T10:57:59.891Z,932.24
2023-04-21T10:59:00.817Z,932.27
2023-04-21T11:00:01.326Z,932.29
2023-04-21T11:01:02.438Z,932.32
2023-04-21T11:02:03.005Z,932.29
2023-04-21T11:03:03.190Z,932.29
2023-04-21T11:04:04.137Z,932.28
2023-04-21T11:05:04.434Z,932.26
2023-04-21T11:06:05.122Z,932.27
2023-04-21T11:07:05.673Z,932.26
2023-04-21T11:08:06.755Z,932.28
2023-04-21T11:09:07.631Z,932.23
2023-04-21T11:10:08.733Z,932.19
2023-04-21T11:11:09.669Z,932.24
2023-04-21T11:12:10.179Z,932.2
2023-04-21T11:13:10.708Z,932.17
2023-04-21T11:14:11.654Z,932.12
2023-04-21T11:15:12.533Z,932.18
2023-04-21T11:16:13.111Z,932.13
2023-04-21T11:17:13.313Z,932.21
2023-04-21T11:18:13.642Z,932.15
2023-04-21T11:19:14.621Z,932.12
2023-04-21T11:20:15.389Z,932.14
2023-04-21T11:21:16.327Z,932.1
2023-04-21T11:22:17.396Z,932.1
2023-04-21T11:23:18.396Z,932.08
2023-04-21T11:24:18.816Z,932.04
2023-04-21T11:25:19.005Z,932.04
2023-04-21T11:26:19.612Z,932.08
2023-04-21T11:27:20.527Z,932.09
2023-04-21T11:28:21.593Z,932.05
2023-04-21T11:29:21.913Z,932.05
2023-04-21T11:30:22.456Z,932.08
2023-04-21T11:31:23.333Z,932.1
2023-04-21T11:32:23.483Z,932.09
2023-04-21T11:33:23.720Z,932.1
2023-04-21T11:34:24.722Z,932.11
2023-04-21T11:35:25.501Z,932.12
2023-04-21T11:36:26.434Z,932.1
2023-04-21T11:37:27.355Z,932.11
2023-04-21T11:38:28.369Z,932.06
2023-04-21T11:39:29.319Z,932.05
2023-04-21T11:40:30.071Z,932.06
2023-04-21T11:41:30.796Z,932.03
2023-04-21T11:42:31.755Z,932.05
2023-04-21T11:43:31.980Z,932.07
2023-04-21T11:44:32.716Z,932.04
2023-04-21T11:45:33.486Z,932.05
2023-04-21T11:46:33.667Z,932.08
2023-04-21T11:47:34.703Z,932.03
2023-04-21T11:48:34.942Z,932.02
2023-04-21T11:49:35.508Z,931.97
2023-04-21T11:50:36.520Z,931.99
2023-04-21T11:51:37.248Z,931.96
2023-04-21T11:52:38.020Z,932.02
2023-04-21T11:53:38.558Z,931.98
2023-04-21T11:54:39.531Z,931.99
2023-04-21T11:55:40.478Z,931.98
2023-04-21T11:56:40.797Z,931.97
2023-04-21T11:57:41.723Z,931.98
2023-04-21T11:58:42.616Z,931.96
2023-04-21T11:59:43.403Z,931.97
2023-04-21T12:00:44.159Z,931.96
2023-04-21T12:01:45.072Z,931.92
2023-04-21T12:02:45.965Z,931.93
2023-04-21T12:03:46.978Z,931.93
2023-04-21T12:04:48.029Z,931.97
2023-04-21T12:05:48.085Z,931.98
2023-04-21T12:06:48.623Z,931.98
2023-04-21T12:07:49.144Z,931.96
2023-04-21T12:08:50.217Z,931.97
2023-04-21T12:09:50.975Z,931.92
2023-04-21T12:10:51.666Z,931.91
2023-04-21T12:11:51.661Z,931.99
2023-04-21T12:12:52.500Z,931.95
2023-04-21T12:13:53.445Z,931.98
2023-04-21T12:14:53.560Z,931.98
2023-04-21T12:15:54.371Z,931.96
2023-04-21T12:16:55.360Z,931.95
2023-04-21T12:17:55.595Z,931.96
2023-04-21T12:18:56.117Z,931.99
2023-04-21T12:19:56.607Z,931.95
2023-04-21T12:20:57.583Z,931.97
2023-04-21T12:21:58.527Z,931.93
2023-04-21T12:22:58.832Z,931.92
2023-04-21T12:23:59.326Z,931.9
2023-04-21T12:25:00.071Z,931.92
2023-04-21T12:26:00.329Z,931.94
2023-04-21T12:27:00.477Z,931.92
2023-04-21T12:28:01.076Z,931.93
2023-04-21T12:29:01.600Z,931.97
2023-04-21T12:30:02.293Z,931.93
2023-04-21T12:31:03.099Z,931.95
2023-04-21T12:32:04.023Z,931.89
2023-04-21T12:33:04.924Z,931.89
2023-04-21T12:34:05.348Z,931.85
2023-04-21T12:35:06.362Z,931.87
2023-04-21T12:36:06.566Z,931.86
2023-04-21T12:37:07.083Z,931.85
2023-04-21T12:38:08.009Z,931.85
2023-04-21T12:39:08.857Z,931.89
2023-04-21T12:40:09.561Z,931.88
2023-04-21T12:41:09.587Z,931.85